Time;durP1;ratioP1;P1;durP2;ratioP2;P2;SDS_P1;SDS_P2;PMS_P1;PMS_P2;Temp;Humidity;BMP_temperature;BMP_pressure;BME280_temperature;BME280_humidity;BME280_pressure;Samples;Min_cycle;Max_cycle;Signal;HPM_P1;HPM_P2
2019/11/21 00:02:13;;;;;;;36.1;32.4;;;;;;;;;;;;;
2019/11/21 00:04:38;;;;;;;33.9;30.5;;;;;;;;;;;;;
2019/11/21 00:07:03;;;;;;;34.8;31.3;;;;;;;;;;;;;
2019/11/21 00:09:29;;;;;;;39;35.1;;;;;;;;;;;;;
2019/11/21 00:11:54;;;;;;;39;35;;;;;;;;;;;;;
2019/11/21 00:14:19;;;;;;;39.6;35.3;;;;;;;;;;;;;
2019/11/21 00:16:44;;;;;;;37.2;33.4;;;;;;;;;;;;;
2019/11/21 00:19:09;;;;;;;37.8;33.9;;;;;;;;;;;;;
2019/11/21 00:21:34;;;;;;;37.9;34;;;;;;;;;;;;;
2019/11/21 00:23:59;;;;;;;38;34.1;;;;;;;;;;;;;
2019/11/21 00:26:24;;;;;;;38.4;34.4;;;;;;;;;;;;;
2019/11/21 00:28:49;;;;;;;40.5;36.2;;;;;;;;;;;;;
2019/11/21 00:31:14;;;;;;;42.5;37.9;;;;;;;;;;;;;
2019/11/21 00:33:39;;;;;;;41.2;36.9;;;;;;;;;;;;;
2019/11/21 00:36:05;;;;;;;41.2;36.9;;;;;;;;;;;;;
2019/11/21 00:41:00;;;;;;;39.6;35.5;;;;;;;;;;;;;
2019/11/21 00:43:20;;;;;;;41.3;37;;;;;;;;;;;;;
2019/11/21 00:45:45;;;;;;;40.6;36.4;;;;;;;;;;;;;
2019/11/21 00:48:10;;;;;;;39.6;35.5;;;;;;;;;;;;;
2019/11/21 00:50:35;;;;;;;40;35.9;;;;;;;;;;;;;
2019/11/21 00:53:00;;;;;;;42.8;38.3;;;;;;;;;;;;;
2019/11/21 00:55:25;;;;;;;41;36.5;;;;;;;;;;;;;
2019/11/21 00:57:50;;;;;;;39.7;35.6;;;;;;;;;;;;;
2019/11/21 01:00:16;;;;;;;40.3;36;;;;;;;;;;;;;
2019/11/21 01:02:41;;;;;;;42.2;37.7;;;;;;;;;;;;;
2019/11/21 01:06:20;;;;;;;41.3;36.8;;;;;;;;;;;;;
2019/11/21 01:08:45;;;;;;;40.4;36.1;;;;;;;;;;;;;
2019/11/21 01:11:10;;;;;;;41.8;37.4;;;;;;;;;;;;;
2019/11/21 01:13:35;;;;;;;42;37.5;;;;;;;;;;;;;
2019/11/21 01:16:01;;;;;;;42.4;37.5;;;;;;;;;;;;;
2019/11/21 01:18:26;;;;;;;42.3;37.7;;;;;;;;;;;;;
2019/11/21 01:20:51;;;;;;;42;37.5;;;;;;;;;;;;;
2019/11/21 01:23:16;;;;;;;41.4;36.9;;;;;;;;;;;;;
2019/11/21 01:25:41;;;;;;;42.3;37.8;;;;;;;;;;;;;
2019/11/21 01:28:06;;;;;;;41.5;37;;;;;;;;;;;;;
2019/11/21 01:30:32;;;;;;;40.6;36.2;;;;;;;;;;;;;
2019/11/21 01:32:56;;;;;;;41.4;36.9;;;;;;;;;;;;;
2019/11/21 01:35:22;;;;;;;40;35.5;;;;;;;;;;;;;
2019/11/21 01:37:47;;;;;;;41;36.5;;;;;;;;;;;;;
2019/11/21 01:40:12;;;;;;;41;36.6;;;;;;;;;;;;;
2019/11/21 01:42:37;;;;;;;42.6;38;;;;;;;;;;;;;
2019/11/21 01:45:02;;;;;;;43.2;38.6;;;;;;;;;;;;;
2019/11/21 01:47:27;;;;;;;43.2;38.6;;;;;;;;;;;;;
2019/11/21 01:49:52;;;;;;;41.6;37.2;;;;;;;;;;;;;
2019/11/21 01:52:17;;;;;;;42.6;38.1;;;;;;;;;;;;;
2019/11/21 01:54:42;;;;;;;42.6;38.1;;;;;;;;;;;;;
2019/11/21 01:57:07;;;;;;;45;39.6;;;;;;;;;;;;;
2019/11/21 01:59:32;;;;;;;43.1;38.5;;;;;;;;;;;;;
2019/11/21 02:01:57;;;;;;;43;38.4;;;;;;;;;;;;;
2019/11/21 02:04:23;;;;;;;43.7;38.9;;;;;;;;;;;;;
2019/11/21 02:06:48;;;;;;;46.3;41.2;;;;;;;;;;;;;
2019/11/21 02:09:13;;;;;;;46.3;40.2;;;;;;;;;;;;;
2019/11/21 02:11:38;;;;;;;45.5;40.6;;;;;;;;;;;;;
2019/11/21 02:14:03;;;;;;;46.3;41.1;;;;;;;;;;;;;
2019/11/21 02:16:28;;;;;;;45.7;40.3;;;;;;;;;;;;;
2019/11/21 02:18:53;;;;;;;46.8;41.1;;;;;;;;;;;;;
2019/11/21 02:21:18;;;;;;;45.2;40.3;;;;;;;;;;;;;
2019/11/21 02:23:45;;;;;;;47.4;41.1;;;;;;;;;;;;;
2019/11/21 02:28:39;;;;;;;44.3;39.4;;;;;;;;;;;;;
2019/11/21 02:30:59;;;;;;;43.6;38.9;;;;;;;;;;;;;
2019/11/21 02:33:24;;;;;;;47.5;40.9;;;;;;;;;;;;;
2019/11/21 02:35:49;;;;;;;47.2;41.9;;;;;;;;;;;;;
2019/11/21 02:38:14;;;;;;;46.9;41;;;;;;;;;;;;;
2019/11/21 02:40:39;;;;;;;50.1;43.8;;;;;;;;;;;;;
2019/11/21 02:43:04;;;;;;;49.7;43.7;;;;;;;;;;;;;
2019/11/21 02:45:29;;;;;;;53.7;46.7;;;;;;;;;;;;;
2019/11/21 02:47:54;;;;;;;49.3;43.5;;;;;;;;;;;;;
2019/11/21 02:50:19;;;;;;;50.4;43.8;;;;;;;;;;;;;
2019/11/21 02:52:44;;;;;;;47.4;41.9;;;;;;;;;;;;;
2019/11/21 02:55:10;;;;;;;52;44.6;;;;;;;;;;;;;
2019/11/21 02:57:35;;;;;;;50;44.5;;;;;;;;;;;;;
2019/11/21 03:00:00;;;;;;;49.3;43.9;;;;;;;;;;;;;
2019/11/21 03:02:25;;;;;;;51.6;44.5;;;;;;;;;;;;;
2019/11/21 03:04:50;;;;;;;48.5;43.2;;;;;;;;;;;;;
2019/11/21 03:07:16;;;;;;;48.8;43.4;;;;;;;;;;;;;
2019/11/21 03:09:41;;;;;;;50.4;44.9;;;;;;;;;;;;;
2019/11/21 03:12:06;;;;;;;49.1;43.8;;;;;;;;;;;;;
2019/11/21 03:14:31;;;;;;;51;45.1;;;;;;;;;;;;;
2019/11/21 03:16:56;;;;;;;52;46.4;;;;;;;;;;;;;
2019/11/21 03:19:21;;;;;;;49.6;44.2;;;;;;;;;;;;;
2019/11/21 03:21:46;;;;;;;51.9;46;;;;;;;;;;;;;
2019/11/21 03:24:11;;;;;;;51.9;45.8;;;;;;;;;;;;;
2019/11/21 03:26:36;;;;;;;51;45.3;;;;;;;;;;;;;
2019/11/21 03:29:01;;;;;;;50.6;45;;;;;;;;;;;;;
2019/11/21 03:31:27;;;;;;;53.6;46.5;;;;;;;;;;;;;
2019/11/21 03:33:52;;;;;;;51.5;45.6;;;;;;;;;;;;;
2019/11/21 03:36:17;;;;;;;53.3;45.9;;;;;;;;;;;;;
2019/11/21 03:38:42;;;;;;;53.6;46.7;;;;;;;;;;;;;
2019/11/21 03:41:07;;;;;;;52.4;45.9;;;;;;;;;;;;;
2019/11/21 03:43:32;;;;;;;56.1;47.7;;;;;;;;;;;;;
2019/11/21 03:45:57;;;;;;;56.2;46.3;;;;;;;;;;;;;
2019/11/21 03:48:22;;;;;;;54.4;46.5;;;;;;;;;;;;;
2019/11/21 03:51:32;;;;;;;53.7;47.4;;;;;;;;;;;;;
2019/11/21 03:53:57;;;;;;;56.3;47.5;;;;;;;;;;;;;
2019/11/21 03:56:22;;;;;;;52.2;46.5;;;;;;;;;;;;;
2019/11/21 03:58:47;;;;;;;55.6;48.1;;;;;;;;;;;;;
2019/11/21 04:02:27;;;;;;;54;47.4;;;;;;;4.72;86.82129;953.4664;;;;
2019/11/21 04:04:52;;;;;;;55.5;47.2;;;;;;;4.69;86.72363;953.4928;;;;
2019/11/21 04:07:17;;;;;;;58.5;49;;;;;;;;;;;;;
2019/11/21 04:09:42;;;;;;;59.2;49.7;;;;;;;;;;;;;
2019/11/21 04:12:07;;;;;;;59.4;51;;;;;;;;;;;;;
2019/11/21 04:14:32;;;;;;;59.5;50.7;;;;;;;;;;;;;
2019/11/21 04:16:58;;;;;;;56.6;48.9;;;;;;;;;;;;;
2019/11/21 04:19:23;;;;;;;57.2;49;;;;;;;;;;;;;
2019/11/21 04:21:48;;;;;;;57.6;49;;;;;;;;;;;;;
2019/11/21 04:24:13;;;;;;;59.8;50.2;;;;;;;;;;;;;
2019/11/21 04:26:38;;;;;;;58.4;49.1;;;;;;;;;;;;;
2019/11/21 04:29:03;;;;;;;62;50.9;;;;;;;;;;;;;
2019/11/21 04:31:28;;;;;;;57.1;48.9;;;;;;;;;;;;;
2019/11/21 04:33:53;;;;;;;54.7;47.6;;;;;;;;;;;;;
2019/11/21 04:36:18;;;;;;;57.7;48.4;;;;;;;;;;;;;
2019/11/21 04:38:43;;;;;;;58.3;49.7;;;;;;;;;;;;;
2019/11/21 04:41:08;;;;;;;63.6;51.9;;;;;;;;;;;;;
2019/11/21 04:43:33;;;;;;;62;51;;;;;;;;;;;;;
2019/11/21 04:45:59;;;;;;;59.3;49.8;;;;;;;;;;;;;
2019/11/21 04:48:24;;;;;;;58.6;49.4;;;;;;;;;;;;;
2019/11/21 04:50:49;;;;;;;57.6;47.9;;;;;;;;;;;;;
2019/11/21 04:53:14;;;;;;;57.4;48.7;;;;;;;;;;;;;
2019/11/21 04:56:08;;;;;;;55.3;47.9;;;;;;;;;;;;;
2019/11/21 04:58:04;;;;;;;59.1;49.3;;;;;;;;;;;;;
2019/11/21 05:00:29;;;;;;;62;50.3;;;;;;;;;;;;;
2019/11/21 05:02:54;;;;;;;57.9;48.8;;;;;;;;;;;;;
2019/11/21 05:05:19;;;;;;;59.5;49.3;;;;;;;;;;;;;
2019/11/21 05:07:45;;;;;;;58.5;49.4;;;;;;;;;;;;;
2019/11/21 05:10:10;;;;;;;56.3;47.3;;;;;;;;;;;;;
2019/11/21 05:12:35;;;;;;;57;48.1;;;;;;;;;;;;;
2019/11/21 05:15:00;;;;;;;56.3;47.7;;;;;;;;;;;;;
2019/11/21 05:17:25;;;;;;;54.9;46.5;;;;;;;;;;;;;
2019/11/21 05:19:50;;;;;;;59.8;49.1;;;;;;;;;;;;;
2019/11/21 05:22:15;;;;;;;56.4;47.6;;;;;;;;;;;;;
2019/11/21 05:24:40;;;;;;;56.5;47.4;;;;;;;;;;;;;
2019/11/21 05:27:05;;;;;;;60.9;49.6;;;;;;;;;;;;;
2019/11/21 05:29:30;;;;;;;56.3;46.6;;;;;;;;;;;;;
2019/11/21 05:31:56;;;;;;;56.4;47.3;;;;;;;;;;;;;
2019/11/21 05:34:21;;;;;;;53.9;45;;;;;;;;;;;;;
2019/11/21 05:36:46;;;;;;;55.4;46.5;;;;;;;;;;;;;
2019/11/21 05:39:11;;;;;;;55.8;45.3;;;;;;;;;;;;;
2019/11/21 05:41:37;;;;;;;52.6;44.1;;;;;;;;;;;;;
2019/11/21 05:44:01;;;;;;;53.1;44;;;;;;;;;;;;;
2019/11/21 05:46:35;;;;;;;52.1;43;;;;;;;;;;;;;
2019/11/21 05:48:59;;;;;;;50.9;41.9;;;;;;;;;;;;;
2019/11/21 05:52:05;;;;;;;51.6;41.5;;;;;;;;;;;;;
2019/11/21 05:53:42;;;;;;;49.1;41;;;;;;;;;;;;;
2019/11/21 05:56:07;;;;;;;52.5;43;;;;;;;;;;;;;
2019/11/21 05:58:32;;;;;;;49.3;41.1;;;;;;;;;;;;;
2019/11/21 06:00:58;;;;;;;48.9;41.7;;;;;;;;;;;;;
2019/11/21 06:03:22;;;;;;;50.7;42.8;;;;;;;;;;;;;
2019/11/21 06:05:47;;;;;;;49.9;42.1;;;;;;;;;;;;;
2019/11/21 06:08:12;;;;;;;50.8;42.4;;;;;;;;;;;;;
2019/11/21 06:10:37;;;;;;;50.2;42.7;;;;;;;;;;;;;
2019/11/21 06:13:03;;;;;;;51.3;42.1;;;;;;;;;;;;;
2019/11/21 06:15:28;;;;;;;51.6;41.1;;;;;;;;;;;;;
2019/11/21 06:17:53;;;;;;;49.2;39.5;;;;;;;;;;;;;
2019/11/21 06:20:18;;;;;;;51.4;41.3;;;;;;;;;;;;;
2019/11/21 06:22:43;;;;;;;52.9;44;;;;;;;;;;;;;
2019/11/21 06:25:08;;;;;;;54.8;43.5;;;;;;;;;;;;;
2019/11/21 06:27:33;;;;;;;55.6;43.8;;;;;;;;;;;;;
2019/11/21 06:29:58;;;;;;;55.4;44.4;;;;;;;;;;;;;
2019/11/21 06:32:23;;;;;;;54.1;44.3;;;;;;;;;;;;;
2019/11/21 06:34:48;;;;;;;53;43.5;;;;;;;;;;;;;
2019/11/21 06:37:14;;;;;;;52.7;44.1;;;;;;;;;;;;;
2019/11/21 06:39:39;;;;;;;51.4;43.9;;;;;;;;;;;;;
2019/11/21 06:42:04;;;;;;;51.6;43.6;;;;;;;;;;;;;
2019/11/21 06:44:30;;;;;;;53.5;44.7;;;;;;;;;;;;;
2019/11/21 06:47:19;;;;;;;51.3;42.8;;;;;;;;;;;;;
2019/11/21 06:49:21;;;;;;;51.9;43.6;;;;;;;;;;;;;
2019/11/21 06:51:44;;;;;;;48.4;41.7;;;;;;;;;;;;;
2019/11/21 06:54:10;;;;;;;51.7;42.7;;;;;;;;;;;;;
2019/11/21 06:56:35;;;;;;;48.7;42.3;;;;;;;;;;;;;
2019/11/21 06:59:00;;;;;;;50.6;42.4;;;;;;;;;;;;;
2019/11/21 07:01:25;;;;;;;46.5;40.1;;;;;;;;;;;;;
2019/11/21 07:03:50;;;;;;;51.7;42.7;;;;;;;;;;;;;
2019/11/21 07:06:15;;;;;;;51.9;44.2;;;;;;;;;;;;;
2019/11/21 07:08:40;;;;;;;51;42.7;;;;;;;;;;;;;
2019/11/21 07:11:05;;;;;;;52.8;44.1;;;;;;;;;;;;;
2019/11/21 07:13:30;;;;;;;50.2;43.6;;;;;;;;;;;;;
2019/11/21 07:15:55;;;;;;;50;43.1;;;;;;;;;;;;;
2019/11/21 07:18:20;;;;;;;47.8;42.2;;;;;;;;;;;;;
2019/11/21 07:20:46;;;;;;;50.8;42.2;;;;;;;;;;;;;
2019/11/21 07:23:11;;;;;;;49.8;42;;;;;;;;;;;;;
2019/11/21 07:25:36;;;;;;;48.1;41.7;;;;;;;;;;;;;
2019/11/21 07:28:01;;;;;;;48.4;41.3;;;;;;;;;;;;;
2019/11/21 07:30:26;;;;;;;49.1;42.1;;;;;;;;;;;;;
2019/11/21 07:32:51;;;;;;;51.7;43.2;;;;;;;;;;;;;
2019/11/21 07:35:16;;;;;;;50;42.6;;;;;;;;;;;;;
2019/11/21 07:37:41;;;;;;;51.3;43.2;;;;;;;;;;;;;
2019/11/21 07:40:06;;;;;;;49.6;42.2;;;;;;;;;;;;;
2019/11/21 07:42:31;;;;;;;50.1;43.4;;;;;;;;;;;;;
2019/11/21 07:44:56;;;;;;;51.2;41.7;;;;;;;;;;;;;
2019/11/21 07:47:21;;;;;;;54.3;44.6;;;;;;;;;;;;;
2019/11/21 07:49:47;;;;;;;52.6;44.6;;;;;;;;;;;;;
2019/11/21 07:52:12;;;;;;;54.9;44.7;;;;;;;;;;;;;
2019/11/21 07:54:38;;;;;;;57.1;45.1;;;;;;;;;;;;;
2019/11/21 07:57:02;;;;;;;56;45.1;;;;;;;;;;;;;
2019/11/21 07:59:27;;;;;;;55.2;45.4;;;;;;;;;;;;;
2019/11/21 08:01:52;;;;;;;53.6;43.8;;;;;;;;;;;;;
2019/11/21 08:04:17;;;;;;;51.8;43;;;;;;;;;;;;;
2019/11/21 08:06:42;;;;;;;53.5;44.1;;;;;;;;;;;;;
2019/11/21 08:09:07;;;;;;;53.8;43.9;;;;;;;;;;;;;
2019/11/21 08:11:33;;;;;;;53.3;43.2;;;;;;;;;;;;;
2019/11/21 08:13:58;;;;;;;53.3;43.9;;;;;;;;;;;;;
2019/11/21 08:16:23;;;;;;;56.8;45.4;;;;;;;;;;;;;
2019/11/21 08:18:48;;;;;;;52.7;44;;;;;;;;;;;;;
2019/11/21 08:21:13;;;;;;;53.3;44.1;;;;;;;;;;;;;
2019/11/21 08:23:38;;;;;;;52.7;44.3;;;;;;;;;;;;;
2019/11/21 08:26:03;;;;;;;53.3;43.1;;;;;;;;;;;;;
2019/11/21 08:28:28;;;;;;;50.4;41.1;;;;;;;;;;;;;
2019/11/21 08:30:53;;;;;;;52.7;41.7;;;;;;;;;;;;;
2019/11/21 08:33:18;;;;;;;50.5;41.2;;;;;;;;;;;;;
2019/11/21 08:35:43;;;;;;;53;42.6;;;;;;;;;;;;;
2019/11/21 08:38:09;;;;;;;51.5;41.5;;;;;;;;;;;;;
2019/11/21 08:40:34;;;;;;;51.6;41.9;;;;;;;;;;;;;
2019/11/21 08:42:59;;;;;;;54.1;42;;;;;;;;;;;;;
2019/11/21 08:45:24;;;;;;;51.1;41;;;;;;;;;;;;;
2019/11/21 08:47:49;;;;;;;49.3;41.1;;;;;;;;;;;;;
2019/11/21 08:50:14;;;;;;;47.3;39.7;;;;;;;;;;;;;
2019/11/21 08:55:05;;;;;;;48;40.1;;;;;;;;;;;;;
2019/11/21 08:57:30;;;;;;;49.7;40.6;;;;;;;;;;;;;
2019/11/21 08:59:55;;;;;;;48.3;39.9;;;;;;;;;;;;;
2019/11/21 09:02:20;;;;;;;47.3;39.5;;;;;;;;;;;;;
2019/11/21 09:04:45;;;;;;;42.1;36;;;;;;;;;;;;;
2019/11/21 09:07:10;;;;;;;40.4;35.7;;;;;;;;;;;;;
2019/11/21 09:09:35;;;;;;;43.6;37.2;;;;;;;;;;;;;
2019/11/21 09:12:00;;;;;;;48;38.5;;;;;;;;;;;;;
2019/11/21 09:14:25;;;;;;;47.5;38.1;;;;;;;;;;;;;
2019/11/21 09:16:51;;;;;;;44.8;37.4;;;;;;;;;;;;;
2019/11/21 09:19:16;;;;;;;45.7;36.5;;;;;;;;;;;;;
2019/11/21 09:21:41;;;;;;;44.6;36.1;;;;;;;;;;;;;
2019/11/21 09:24:06;;;;;;;43.7;36.1;;;;;;;;;;;;;
2019/11/21 09:26:31;;;;;;;45.6;35.2;;;;;;;;;;;;;
2019/11/21 09:28:56;;;;;;;45;36.1;;;;;;;;;;;;;
2019/11/21 09:31:21;;;;;;;44.8;36.7;;;;;;;;;;;;;
2019/11/21 09:33:46;;;;;;;50;38.4;;;;;;;;;;;;;
2019/11/21 09:36:11;;;;;;;47.7;37.7;;;;;;;;;;;;;
2019/11/21 09:38:36;;;;;;;48.9;37.6;;;;;;;;;;;;;
2019/11/21 09:41:01;;;;;;;49.1;38.6;;;;;;;;;;;;;
2019/11/21 09:43:26;;;;;;;49;39.3;;;;;;;;;;;;;
2019/11/21 09:45:51;;;;;;;46.5;37.9;;;;;;;;;;;;;
2019/11/21 09:48:17;;;;;;;47.6;37.5;;;;;;;;;;;;;
2019/11/21 09:50:42;;;;;;;48.3;38.3;;;;;;;;;;;;;
2019/11/21 09:53:07;;;;;;;47.5;37.6;;;;;;;;;;;;;
2019/11/21 09:55:32;;;;;;;48.6;38.5;;;;;;;;;;;;;
2019/11/21 09:57:57;;;;;;;49.8;38.5;;;;;;;;;;;;;
2019/11/21 10:00:22;;;;;;;49;37.6;;;;;;;;;;;;;
2019/11/21 10:02:47;;;;;;;46.1;36.7;;;;;;;;;;;;;
2019/11/21 10:05:13;;;;;;;46.7;36.5;;;;;;;;;;;;;
2019/11/21 10:07:38;;;;;;;47.4;37.2;;;;;;;;;;;;;
2019/11/21 10:10:03;;;;;;;46.2;37;;;;;;;;;;;;;
2019/11/21 10:14:58;;;;;;;49.3;37.8;;;;;;;;;;;;;
2019/11/21 10:17:21;;;;;;;47.8;38.6;;;;;;;;;;;;;
2019/11/21 10:19:44;;;;;;;48.2;36.9;;;;;;;;;;;;;
2019/11/21 10:22:09;;;;;;;49.8;38.2;;;;;;;;;;;;;
2019/11/21 10:24:34;;;;;;;50.8;38;;;;;;;;;;;;;
2019/11/21 10:26:59;;;;;;;51.1;38.3;;;;;;;;;;;;;
2019/11/21 10:29:24;;;;;;;47.3;36.5;;;;;;;;;;;;;
2019/11/21 10:31:49;;;;;;;49.4;37.7;;;;;;;;;;;;;
2019/11/21 10:34:14;;;;;;;49.8;37.6;;;;;;;;;;;;;
2019/11/21 10:36:39;;;;;;;51.1;38.6;;;;;;;;;;;;;
2019/11/21 10:39:04;;;;;;;48.1;37.7;;;;;;;;;;;;;
2019/11/21 10:41:29;;;;;;;44.3;35.7;;;;;;;;;;;;;
2019/11/21 10:43:54;;;;;;;46.2;36.1;;;;;;;;;;;;;
2019/11/21 10:46:19;;;;;;;45.4;35.5;;;;;;;;;;;;;
2019/11/21 10:48:45;;;;;;;47.5;37;;;;;;;;;;;;;
2019/11/21 10:51:10;;;;;;;46.8;35.8;;;;;;;;;;;;;
2019/11/21 10:53:35;;;;;;;49;37.5;;;;;;;;;;;;;
2019/11/21 10:56:00;;;;;;;47.3;36.6;;;;;;;;;;;;;
2019/11/21 10:58:25;;;;;;;44.1;35.2;;;;;;;;;;;;;
2019/11/21 11:00:50;;;;;;;48.5;36.5;;;;;;;;;;;;;
2019/11/21 11:03:15;;;;;;;47.7;36.3;;;;;;;;;;;;;
2019/11/21 11:05:40;;;;;;;47.1;36.6;;;;;;;;;;;;;
2019/11/21 11:08:05;;;;;;;49.7;37.3;;;;;;;;;;;;;
2019/11/21 11:10:31;;;;;;;45;35.4;;;;;;;;;;;;;
2019/11/21 11:12:56;;;;;;;50;38.2;;;;;;;;;;;;;
2019/11/21 11:15:21;;;;;;;46.2;35.9;;;;;;;;;;;;;
2019/11/21 11:17:50;;;;;;;51;38.5;;;;;;;;;;;;;
2019/11/21 11:20:11;;;;;;;49.1;37.8;;;;;;;;;;;;;
2019/11/21 11:22:36;;;;;;;49.5;37.2;;;;;;;;;;;;;
2019/11/21 11:25:01;;;;;;;48.5;37.5;;;;;;;;;;;;;
2019/11/21 11:27:26;;;;;;;47.6;36.1;;;;;;;;;;;;;
2019/11/21 11:29:51;;;;;;;48.8;37.7;;;;;;;;;;;;;
2019/11/21 11:32:17;;;;;;;47.1;36.9;;;;;;;;;;;;;
2019/11/21 11:34:42;;;;;;;47.3;37.1;;;;;;;;;;;;;
2019/11/21 11:37:07;;;;;;;47.3;35.9;;;;;;;;;;;;;
2019/11/21 11:39:32;;;;;;;48.8;36.9;;;;;;;;;;;;;
2019/11/21 11:41:57;;;;;;;48.6;36;;;;;;;;;;;;;
2019/11/21 11:44:22;;;;;;;45.3;35.6;;;;;;;;;;;;;
2019/11/21 11:46:47;;;;;;;47.8;36.8;;;;;;;;;;;;;
2019/11/21 11:49:12;;;;;;;45.8;36.4;;;;;;;;;;;;;
2019/11/21 11:51:37;;;;;;;45.1;35.5;;;;;;;;;;;;;
2019/11/21 11:54:03;;;;;;;43.5;35.2;;;;;;;;;;;;;
2019/11/21 11:56:28;;;;;;;45.1;35.3;;;;;;;;;;;;;
2019/11/21 11:58:53;;;;;;;47.4;37.1;;;;;;;;;;;;;
2019/11/21 12:01:18;;;;;;;46.8;36.2;;;;;;;;;;;;;
2019/11/21 12:03:43;;;;;;;45.1;35.8;;;;;;;;;;;;;
2019/11/21 12:06:08;;;;;;;46.9;35.8;;;;;;;;;;;;;
2019/11/21 12:08:33;;;;;;;46.3;35.6;;;;;;;;;;;;;
2019/11/21 12:10:58;;;;;;;44.9;35.4;;;;;;;;;;;;;
2019/11/21 12:13:23;;;;;;;46.3;35.6;;;;;;;;;;;;;
2019/11/21 12:15:48;;;;;;;45.5;35.2;;;;;;;;;;;;;
2019/11/21 12:18:14;;;;;;;46.3;35.4;;;;;;;;;;;;;
2019/11/21 12:20:39;;;;;;;46.2;35.2;;;;;;;;;;;;;
2019/11/21 12:23:04;;;;;;;45.4;34.2;;;;;;;;;;;;;
2019/11/21 12:25:29;;;;;;;44;34.4;;;;;;;;;;;;;
2019/11/21 12:27:54;;;;;;;44.7;34.9;;;;;;;;;;;;;
2019/11/21 12:30:19;;;;;;;45.7;34.9;;;;;;;;;;;;;
2019/11/21 12:32:44;;;;;;;45;34.6;;;;;;;;;;;;;
2019/11/21 12:35:09;;;;;;;46.1;35;;;;;;;;;;;;;
2019/11/21 12:37:34;;;;;;;44.6;34.7;;;;;;;;;;;;;
2019/11/21 12:44:49;;;;;;;44.5;35.4;;;;;;;;;;;;;
2019/11/21 12:47:14;;;;;;;45.2;34.8;;;;;;;;;;;;;
2019/11/21 12:49:39;;;;;;;45.3;34.9;;;;;;;;;;;;;
2019/11/21 12:52:05;;;;;;;43.1;32.8;;;;;;;;;;;;;
2019/11/21 12:54:30;;;;;;;47.5;34.9;;;;;;;;;;;;;
2019/11/21 12:56:55;;;;;;;46;35.2;;;;;;;;;;;;;
2019/11/21 12:59:20;;;;;;;42.9;34;;;;;;;;;;;;;
2019/11/21 13:01:50;;;;;;;45;34.7;;;;;;;;;;;;;
2019/11/21 13:04:15;;;;;;;43.5;33.6;;;;;;;;;;;;;
2019/11/21 13:06:40;;;;;;;44.7;33.9;;;;;;;;;;;;;
2019/11/21 13:09:05;;;;;;;41.5;32.9;;;;;;;;;;;;;
2019/11/21 13:11:30;;;;;;;42;32.9;;;;;;;;;;;;;
2019/11/21 13:13:56;;;;;;;42.8;32.5;;;;;;;;;;;;;
2019/11/21 13:16:21;;;;;;;42.4;33.5;;;;;;;;;;;;;
2019/11/21 13:18:52;;;;;;;43.6;34;;;;;;;;;;;;;
2019/11/21 13:21:44;;;;;;;43.1;33;;;;;;;;;;;;;
2019/11/21 13:23:36;;;;;;;43.5;33.3;;;;;;;;;;;;;
2019/11/21 13:26:01;;;;;;;42.5;33.4;;;;;;;;;;;;;
2019/11/21 13:28:26;;;;;;;43;32.7;;;;;;;;;;;;;
2019/11/21 13:30:51;;;;;;;44.6;34.4;;;;;;;;;;;;;
2019/11/21 13:33:17;;;;;;;43.8;34.8;;;;;;;;;;;;;
2019/11/21 13:35:42;;;;;;;47.2;36.3;;;;;;;;;;;;;
2019/11/21 13:38:07;;;;;;;45.7;35.3;;;;;;;;;;;;;
2019/11/21 13:40:32;;;;;;;47.8;36.3;;;;;;;;;;;;;
2019/11/21 13:42:57;;;;;;;42.8;34.4;;;;;;;;;;;;;
2019/11/21 13:45:22;;;;;;;44.2;35.1;;;;;;;;;;;;;
2019/11/21 13:47:47;;;;;;;42.1;33.7;;;;;;;;;;;;;
2019/11/21 13:50:12;;;;;;;45.5;35;;;;;;;;;;;;;
2019/11/21 13:52:37;;;;;;;46.9;35.5;;;;;;;;;;;;;
2019/11/21 13:55:02;;;;;;;48.4;35.7;;;;;;;;;;;;;
2019/11/21 13:57:27;;;;;;;44.7;34.8;;;;;;;;;;;;;
2019/11/21 13:59:53;;;;;;;46;34.9;;;;;;;;;;;;;
2019/11/21 14:02:18;;;;;;;43.7;34.6;;;;;;;;;;;;;
2019/11/21 14:04:43;;;;;;;44.3;34.5;;;;;;;;;;;;;
2019/11/21 14:07:08;;;;;;;46.4;36.8;;;;;;;;;;;;;
2019/11/21 14:09:33;;;;;;;50.9;39.6;;;;;;;;;;;;;
2019/11/21 14:11:58;;;;;;;50;38.7;;;;;;;;;;;;;
2019/11/21 14:14:23;;;;;;;50;39.1;;;;;;;;;;;;;
2019/11/21 14:16:48;;;;;;;52;37.8;;;;;;;;;;;;;
2019/11/21 14:19:13;;;;;;;52.5;38.3;;;;;;;;;;;;;
2019/11/21 14:21:38;;;;;;;51.2;38;;;;;;;;;;;;;
2019/11/21 14:24:04;;;;;;;49.3;37;;;;;;;;;;;;;
2019/11/21 14:26:29;;;;;;;50.4;37.4;;;;;;;;;;;;;
2019/11/21 14:28:54;;;;;;;50;37.2;;;;;;;;;;;;;
2019/11/21 14:31:19;;;;;;;49.2;37.7;;;;;;;;;;;;;
2019/11/21 14:36:09;;;;;;;48.1;36.5;;;;;;;;;;;;;
2019/11/21 14:38:34;;;;;;;47.9;36.6;;;;;;;;;;;;;
2019/11/21 14:40:59;;;;;;;48.1;36.7;;;;;;;;;;;;;
2019/11/21 14:43:24;;;;;;;50.8;37.9;;;;;;;;;;;;;
2019/11/21 14:45:50;;;;;;;49.7;37;;;;;;;;;;;;;
2019/11/21 14:48:19;;;;;;;50.9;38.6;;;;;;;;;;;;;
2019/11/21 14:50:46;;;;;;;48.2;37.6;;;;;;;;;;;;;
2019/11/21 14:53:05;;;;;;;47.5;37;;;;;;;;;;;;;
2019/11/21 14:55:30;;;;;;;49.9;38.6;;;;;;;;;;;;;
2019/11/21 14:57:55;;;;;;;47.4;36.4;;;;;;;;;;;;;
2019/11/21 15:00:23;;;;;;;48.1;36.8;;;;;;;;;;;;;
2019/11/21 15:02:45;;;;;;;50.4;37.6;;;;;;;;;;;;;
2019/11/21 15:05:10;;;;;;;50.4;37.5;;;;;;;;;;;;;
2019/11/21 15:07:35;;;;;;;47.2;36;;;;;;;;;;;;;
2019/11/21 15:10:01;;;;;;;48;35.8;;;;;;;;;;;;;
2019/11/21 15:12:26;;;;;;;47.9;35.5;;;;;;;;;;;;;
2019/11/21 15:14:51;;;;;;;46.4;34.8;;;;;;;;;;;;;
2019/11/21 15:17:16;;;;;;;46.7;35.3;;;;;;;;;;;;;
2019/11/21 15:19:41;;;;;;;46.8;35.1;;;;;;;;;;;;;
2019/11/21 15:22:06;;;;;;;50;36.1;;;;;;;;;;;;;
2019/11/21 15:24:31;;;;;;;49.5;36.2;;;;;;;;;;;;;
2019/11/21 15:26:56;;;;;;;47.2;35.9;;;;;;;;;;;;;
2019/11/21 15:29:21;;;;;;;48.5;34.3;;;;;;;;;;;;;
2019/11/21 15:31:47;;;;;;;47.5;34.7;;;;;;;;;;;;;
2019/11/21 15:34:12;;;;;;;49.1;35.5;;;;;;;;;;;;;
2019/11/21 15:36:37;;;;;;;48.3;35.5;;;;;;;;;;;;;
2019/11/21 15:39:02;;;;;;;47.8;35.2;;;;;;;;;;;;;
2019/11/21 15:41:27;;;;;;;46;34.2;;;;;;;;;;;;;
2019/11/21 15:43:52;;;;;;;44.8;33.5;;;;;;;;;;;;;
2019/11/21 15:46:17;;;;;;;47.4;35.1;;;;;;;;;;;;;
2019/11/21 15:48:42;;;;;;;47.2;34.9;;;;;;;;;;;;;
2019/11/21 15:51:07;;;;;;;46.6;34.2;;;;;;;;;;;;;
2019/11/21 15:53:33;;;;;;;47.4;35.2;;;;;;;;;;;;;
2019/11/21 15:55:58;;;;;;;48.5;35.1;;;;;;;;;;;;;
2019/11/21 15:58:23;;;;;;;47.3;34.2;;;;;;;;;;;;;
2019/11/21 16:00:48;;;;;;;46.1;34;;;;;;;;;;;;;
2019/11/21 16:03:13;;;;;;;49;35.8;;;;;;;;;;;;;
2019/11/21 16:05:38;;;;;;;47.3;34.8;;;;;;;;;;;;;
2019/11/21 16:08:03;;;;;;;49.7;35.2;;;;;;;;;;;;;
2019/11/21 16:10:28;;;;;;;49.3;35.7;;;;;;;;;;;;;
2019/11/21 16:12:53;;;;;;;49.5;36.8;;;;;;;;;;;;;
2019/11/21 16:15:18;;;;;;;49.1;35.4;;;;;;;;;;;;;
2019/11/21 16:17:44;;;;;;;50.9;36.9;;;;;;;;;;;;;
2019/11/21 16:20:09;;;;;;;51.4;37.1;;;;;;;;;;;;;
2019/11/21 16:22:34;;;;;;;51.9;37;;;;;;;;;;;;;
2019/11/21 16:24:59;;;;;;;61.1;42.7;;;;;;;;;;;;;
2019/11/21 16:27:40;;;;;;;53;39.1;;;;;;;;;;;;;
2019/11/21 16:33:02;;;;;;;61.5;42.4;;;;;;;;;;;;;
2019/11/21 16:34:51;;;;;;;57.4;39.4;;;;;;;;;;;;;
2019/11/21 16:37:05;;;;;;;56.8;39.6;;;;;;;;;;;;;
2019/11/21 16:39:30;;;;;;;62.6;44.1;;;;;;;;;;;;;
2019/11/21 16:41:55;;;;;;;62;43.2;;;;;;;;;;;;;
2019/11/21 16:44:20;;;;;;;61.9;42;;;;;;;;;;;;;
2019/11/21 16:46:45;;;;;;;57.8;38.8;;;;;;;;;;;;;
2019/11/21 16:49:10;;;;;;;53.6;38.1;;;;;;;;;;;;;
2019/11/21 16:51:35;;;;;;;53.4;37.2;;;;;;;;;;;;;
2019/11/21 16:54:01;;;;;;;55.5;38.2;;;;;;;;;;;;;
2019/11/21 16:56:26;;;;;;;53.1;37.7;;;;;;;;;;;;;
2019/11/21 16:58:51;;;;;;;58.9;38.6;;;;;;;;;;;;;
2019/11/21 17:01:16;;;;;;;58.4;40;;;;;;;;;;;;;
2019/11/21 17:03:41;;;;;;;59.5;40.6;;;;;;;;;;;;;
2019/11/21 17:06:06;;;;;;;53.8;39.8;;;;;;;;;;;;;
2019/11/21 17:08:31;;;;;;;56.1;39.9;;;;;;;;;;;;;
2019/11/21 17:10:56;;;;;;;54.3;39.8;;;;;;;;;;;;;
2019/11/21 17:13:21;;;;;;;54.4;38.8;;;;;;;;;;;;;
2019/11/21 17:15:46;;;;;;;53.4;37.9;;;;;;;;;;;;;
2019/11/21 17:18:11;;;;;;;51.9;37.2;;;;;;;;;;;;;
2019/11/21 17:20:36;;;;;;;55.2;38.4;;;;;;;;;;;;;
2019/11/21 17:23:01;;;;;;;51.6;37.8;;;;;;;;;;;;;
2019/11/21 17:25:27;;;;;;;48.7;35.4;;;;;;;;;;;;;
2019/11/21 17:27:52;;;;;;;49.9;37.1;;;;;;;;;;;;;
2019/11/21 17:30:17;;;;;;;51.1;37.4;;;;;;;;;;;;;
2019/11/21 17:32:42;;;;;;;47.9;36.3;;;;;;;;;;;;;
2019/11/21 17:35:07;;;;;;;54.7;39.6;;;;;;;;;;;;;
2019/11/21 17:38:38;;;;;;;52.9;39;;;;;;;5.14;89.37109;952.9244;;;;
2019/11/21 17:40:50;;;;;;;54.4;39.4;;;;;;;5.19;88.80273;952.9219;;;;
2019/11/21 17:43:15;;;;;;;53.3;39.2;;;;;;;5.12;89.46973;952.9322;;;;
2019/11/21 17:45:40;;;;;;;54.9;38.7;;;;;;;5.07;89.35645;952.9548;;;;
2019/11/21 17:48:05;;;;;;;54.1;39.2;;;;;;;5.01;90.07227;952.991;;;;
2019/11/21 17:50:30;;;;;;;51.4;37.9;;;;;;;5.01;90.11816;953.008;;;;
2019/11/21 17:52:56;;;;;;;51.5;38.4;;;;;;;5.1;89.58008;953.0211;;;;
2019/11/21 17:55:21;;;;;;;58.7;41.2;;;;;;;4.99;90.13477;952.9863;;;;
2019/11/21 17:57:46;;;;;;;51.8;38.7;;;;;;;5.15;89.29395;952.9936;;;;
2019/11/21 18:00:12;;;;;;;51.6;37.9;;;;;;;5.23;88.77832;952.9863;;;;
2019/11/21 18:02:36;;;;;;;51.7;38.3;;;;;;;5.2;89.12305;952.9391;;;;
2019/11/21 18:05:02;;;;;;;53.7;38.9;;;;;;;5.23;89.36914;952.9717;;;;
2019/11/21 18:07:27;;;;;;;51.6;38.4;;;;;;;5.29;88.9375;952.9352;;;;
2019/11/21 18:09:52;;;;;;;54.6;39.4;;;;;;;5.3;87.9043;952.9606;;;;
2019/11/21 18:12:18;;;;;;;54.3;39.5;;;;;;;5.11;89.25195;952.8798;;;;
2019/11/21 18:14:44;;;;;;;54.6;39.5;;;;;;;5.12;89.95898;952.8821;;;;
2019/11/21 18:17:09;;;;;;;51.6;39.6;;;;;;;5.12;89.94531;952.97;;;;
2019/11/21 18:19:36;;;;;;;53.3;39.7;;;;;;;5.22;88.89941;952.8984;;;;
2019/11/21 18:21:59;;;;;;;52.5;39.1;;;;;;;5.16;89.12695;952.9178;;;;
2019/11/21 18:24:24;;;;;;;49.6;38.3;;;;;;;5.19;89.96289;952.9662;;;;
2019/11/21 18:26:49;;;;;;;50.3;38.6;;;;;;;5.14;89.21191;952.9793;;;;
2019/11/21 18:29:15;;;;;;;49.4;37.4;;;;;;;5.22;89.39941;953.009;;;;
2019/11/21 18:31:39;;;;;;;52.1;38.3;;;;;;;5.22;89.38867;953.0221;;;;
2019/11/21 18:34:05;;;;;;;46.9;36.7;;;;;;;5.45;87.58301;953.0675;;;;
2019/11/21 18:36:30;;;;;;;45.9;36;;;;;;;5.43;87.85254;953.0531;;;;
2019/11/21 18:38:55;;;;;;;45.6;35.8;;;;;;;5.21;88.53418;953.0446;;;;
2019/11/21 18:41:20;;;;;;;46.4;34.9;;;;;;;5.3;88.09766;952.9922;;;;
2019/11/21 18:43:46;;;;;;;42.4;32.9;;;;;;;5.32;88.3418;953.0014;;;;
2019/11/21 18:46:11;;;;;;;43.4;34.3;;;;;;;5.27;88.00098;953.0251;;;;
2019/11/21 18:48:37;;;;;;;42.7;34;;;;;;;5.02;88.74512;952.9872;;;;
2019/11/21 18:51:01;;;;;;;44.6;34.4;;;;;;;5.15;88.40918;952.9524;;;;
2019/11/21 18:53:27;;;;;;;42.6;34.3;;;;;;;5.28;88.0127;953.0399;;;;
2019/11/21 18:55:53;;;;;;;43.2;35.1;;;;;;;5.31;88.29297;953.0092;;;;
2019/11/21 19:03:07;;;;;;;40.5;33.2;;;;;;;5.38;87.93262;953.024;;;;
2019/11/21 19:05:32;;;;;;;41;33.7;;;;;;;5.32;87.91992;952.9812;;;;
2019/11/21 19:07:58;;;;;;;39.4;32.2;;;;;;;5.29;88.07324;952.9568;;;;
2019/11/21 19:10:25;;;;;;;40.3;32.4;;;;;;;5.32;87.85156;952.9392;;;;
2019/11/21 19:12:50;;;;;;;43.3;33.8;;;;;;;5.21;88.61328;952.9816;;;;
2019/11/21 19:17:40;;;;;;;42.1;33.9;;;;;;;5.37;87.46484;952.9964;;;;
2019/11/21 19:20:06;;;;;;;39.6;31.8;;;;;;;5.21;88.09082;953.0122;;;;
2019/11/21 19:22:31;;;;;;;42.6;33.2;;;;;;;5.16;88.90918;953.0154;;;;
2019/11/21 19:24:56;;;;;;;41.2;32.2;;;;;;;5.35;87.91602;953.0631;;;;
2019/11/21 19:27:21;;;;;;;39.5;32.5;;;;;;;5.26;87.94238;953.0195;;;;
2019/11/21 19:32:11;;;;;;;40.1;32.4;;;;;;;5.34;88.45996;953.019;;;;